createdAt,value
2018-07-06T00:02:07.790Z,97819.83
2018-07-06T00:04:48.302Z,97816.93
2018-07-06T00:07:28.237Z,97820.66
2018-07-06T00:10:08.051Z,97822.61
2018-07-06T00:12:47.781Z,97824.92
2018-07-06T00:15:27.641Z,97826.38
2018-07-06T00:18:07.627Z,97822.45
2018-07-06T00:20:47.513Z,97820.09
2018-07-06T00:23:27.642Z,97822.45
2018-07-06T00:26:07.501Z,97820.13
2018-07-06T00:28:47.424Z,97824.20
2018-07-06T00:31:27.358Z,97819.70
2018-07-06T00:34:07.166Z,97821.80
2018-07-06T00:36:46.974Z,97817.20
2018-07-06T00:39:26.878Z,97817.40
2018-07-06T00:42:06.798Z,97818.29
2018-07-06T00:44:46.378Z,97817.40
2018-07-06T00:47:26.126Z,97817.89
2018-07-06T00:50:05.801Z,97818.53
2018-07-06T00:52:45.716Z,97818.55
2018-07-06T00:55:25.624Z,97826.66
2018-07-06T00:58:05.618Z,97819.83
2018-07-06T01:00:45.664Z,97826.41
2018-07-06T01:03:25.548Z,97825.95
2018-07-06T01:06:05.124Z,97830.49
2018-07-06T01:08:44.970Z,97838.44
2018-07-06T01:11:24.846Z,97833.37
2018-07-06T01:14:04.619Z,97825.39
2018-07-06T01:16:44.393Z,97830.64
2018-07-06T01:19:24.304Z,97833.44
2018-07-06T01:22:04.136Z,97836.92
2018-07-06T01:24:43.956Z,97832.69
2018-07-06T01:27:24.008Z,97833.55
2018-07-06T01:30:03.999Z,97829.27
2018-07-06T01:32:43.773Z,97822.27
2018-07-06T01:35:23.497Z,97819.97
2018-07-06T01:38:03.328Z,97816.94
2018-07-06T01:40:43.087Z,97817.38
2018-07-06T01:43:22.777Z,97813.92
2018-07-06T01:46:02.746Z,97816.98
2018-07-06T01:48:42.529Z,97823.91
2018-07-06T01:51:22.330Z,97813.53
2018-07-06T01:54:02.260Z,97819.20
2018-07-06T01:56:42.171Z,97822.30
2018-07-06T01:59:22.166Z,97823.66
2018-07-06T02:02:01.898Z,97817.84
2018-07-06T02:04:41.708Z,97813.45
2018-07-06T02:07:21.678Z,97816.22
2018-07-06T02:10:01.504Z,97812.27
2018-07-06T02:12:41.103Z,97808.96
2018-07-06T02:15:20.786Z,97808.50
2018-07-06T02:18:00.620Z,97817.84
2018-07-06T02:20:40.484Z,97812.66
2018-07-06T02:23:20.363Z,97812.88
2018-07-06T02:26:00.164Z,97814.39
2018-07-06T02:28:40.054Z,97813.75
2018-07-06T02:31:19.938Z,97811.52
2018-07-06T02:33:59.662Z,97810.53
2018-07-06T02:36:39.380Z,97810.97
2018-07-06T02:39:19.297Z,97810.31
2018-07-06T02:41:59.118Z,97815.17
2018-07-06T02:44:39.052Z,97807.47
2018-07-06T02:47:18.765Z,97813.31
2018-07-06T02:49:58.489Z,97811.52
2018-07-06T02:52:38.405Z,97815.79
2018-07-06T02:55:18.157Z,97817.59
2018-07-06T02:57:57.824Z,97820.14
2018-07-06T03:00:37.504Z,97822.32
2018-07-06T03:03:17.342Z,97820.49
2018-07-06T03:05:57.132Z,97819.34
2018-07-06T03:08:36.822Z,97820.79
2018-07-06T03:11:16.874Z,97820.46
2018-07-06T03:13:56.840Z,97822.83
2018-07-06T03:16:36.739Z,97819.78
2018-07-06T03:19:16.650Z,97820.35
2018-07-06T03:21:57.073Z,97825.78
2018-07-06T03:24:36.803Z,97824.17
2018-07-06T03:27:16.976Z,97823.27
2018-07-06T03:29:56.968Z,97820.79
2018-07-06T03:32:36.982Z,97826.25
2018-07-06T03:35:16.853Z,97821.11
2018-07-06T03:37:56.629Z,97832.42
2018-07-06T03:41:38.984Z,97829.23
2018-07-06T03:44:18.862Z,97833.13
2018-07-06T03:46:58.601Z,97830.41
2018-07-06T03:49:38.486Z,97842.63
2018-07-06T03:52:18.315Z,97839.30
2018-07-06T03:54:58.220Z,97836.27
2018-07-06T03:57:38.121Z,97839.41
2018-07-06T04:00:17.681Z,97842.13
2018-07-06T04:02:57.289Z,97847.84
2018-07-06T04:05:37.177Z,97843.96
2018-07-06T04:08:17.290Z,97844.54
2018-07-06T04:10:57.059Z,97846.51
2018-07-06T04:13:36.847Z,97851.58
2018-07-06T04:16:17.021Z,97855.41
2018-07-06T04:19:01.423Z,97860.02
2018-07-06T04:21:41.167Z,97860.87
2018-07-06T04:24:21.284Z,97859.83
2018-07-06T04:27:00.939Z,97866.92
2018-07-06T04:29:40.954Z,97866.95
2018-07-06T04:32:20.982Z,97870.89
2018-07-06T04:35:00.958Z,97875.05
2018-07-06T04:37:41.075Z,97874.55
2018-07-06T04:40:20.887Z,97880.14
2018-07-06T04:43:00.771Z,97877.22
2018-07-06T04:45:40.655Z,97876.34
2018-07-06T04:48:20.593Z,97880.71
2018-07-06T04:51:00.365Z,97889.16
2018-07-06T04:53:40.269Z,97887.71
2018-07-06T04:56:20.171Z,97889.64
2018-07-06T04:59:00.120Z,97892.83
2018-07-06T05:01:40.173Z,97891.09
2018-07-06T05:04:20.314Z,97898.99
2018-07-06T05:07:00.232Z,97901.85
2018-07-06T05:09:40.090Z,97902.86
2018-07-06T05:12:20.064Z,97904.22
2018-07-06T05:15:00.017Z,97910.20
2018-07-06T05:17:39.916Z,97907.92
2018-07-06T05:20:19.759Z,97908.34
2018-07-06T05:22:59.569Z,97916.18
2018-07-06T05:25:39.644Z,97914.16
2018-07-06T05:28:19.462Z,97920.39
2018-07-06T05:30:59.332Z,97919.96
2018-07-06T05:33:39.052Z,97924.06
2018-07-06T05:36:18.823Z,97921.77
2018-07-06T05:38:58.603Z,97921.33
2018-07-06T05:41:38.417Z,97923.11
2018-07-06T05:44:18.486Z,97927.78
2018-07-06T05:46:58.472Z,97930.22
2018-07-06T05:49:38.239Z,97932.42
2018-07-06T05:52:18.212Z,97930.52
2018-07-06T05:54:57.998Z,97938.28
2018-07-06T05:57:37.954Z,97933.31
2018-07-06T06:00:17.776Z,97932.23
2018-07-06T06:02:57.738Z,97941.50
2018-07-06T06:05:37.663Z,97941.28
2018-07-06T06:08:05.154Z,97949.70
2018-07-06T06:10:33.947Z,97947.09
2018-07-06T06:13:02.775Z,97942.74
2018-07-06T06:15:31.922Z,97948.68
2018-07-06T06:18:01.201Z,97948.67
2018-07-06T06:20:30.323Z,97948.53
2018-07-06T06:22:59.393Z,97957.50
2018-07-06T06:25:28.678Z,97956.67
2018-07-06T06:27:57.540Z,97958.04
2018-07-06T06:30:26.574Z,97961.45
2018-07-06T06:32:55.670Z,97961.55
2018-07-06T06:35:24.850Z,97968.20
2018-07-06T06:37:53.881Z,97961.12
2018-07-06T06:40:22.775Z,97961.45
2018-07-06T06:42:52.072Z,97966.68
2018-07-06T06:45:21.138Z,97963.50
2018-07-06T06:47:50.098Z,97965.36
2018-07-06T06:50:19.334Z,97973.73
2018-07-06T06:52:48.589Z,97970.80
2018-07-06T06:55:17.561Z,97967.78
2018-07-06T06:57:46.754Z,97974.45
2018-07-06T07:00:15.810Z,97967.06
2018-07-06T07:02:45.361Z,97977.55
2018-07-06T07:05:14.359Z,97981.08
2018-07-06T07:07:43.381Z,97969.78
2018-07-06T07:10:12.395Z,97977.66
2018-07-06T07:12:41.247Z,97976.77
2018-07-06T07:15:11.066Z,97985.93
2018-07-06T07:17:39.846Z,97985.81
2018-07-06T07:20:08.815Z,97985.75
2018-07-06T07:22:38.140Z,97988.70
2018-07-06T07:25:07.117Z,97987.99
2018-07-06T07:27:36.125Z,97995.87
2018-07-06T07:30:05.365Z,97994.38
2018-07-06T07:32:34.414Z,97997.09
2018-07-06T07:35:03.808Z,97996.09
2018-07-06T07:37:33.117Z,97994.16
2018-07-06T07:40:02.167Z,97996.32
2018-07-06T07:42:31.231Z,97996.52
2018-07-06T07:45:00.127Z,97991.73
2018-07-06T07:47:29.365Z,97991.73
2018-07-06T07:49:58.470Z,97992.31
2018-07-06T07:52:38.393Z,97998.17
2018-07-06T07:55:07.503Z,97999.71
2018-07-06T07:57:36.327Z,98002.05
2018-07-06T08:00:05.370Z,98004.41
2018-07-06T08:02:34.531Z,98003.81
2018-07-06T08:05:03.529Z,98002.19
2018-07-06T08:07:32.407Z,98006.12
2018-07-06T08:10:01.351Z,98006.06
2018-07-06T08:12:30.410Z,98007.70
2018-07-06T08:14:59.403Z,98011.27
2018-07-06T08:17:28.557Z,98012.95
2018-07-06T08:19:57.352Z,98017.41
2018-07-06T08:22:26.198Z,98019.16
2018-07-06T08:24:55.132Z,98017.84
2018-07-06T08:27:24.739Z,98022.71
2018-07-06T08:29:53.843Z,98022.88
2018-07-06T08:32:22.599Z,98025.16
2018-07-06T08:35:02.235Z,98026.36
2018-07-06T08:37:56.337Z,98027.30
2018-07-06T08:40:26.257Z,98031.58
2018-07-06T08:42:56.505Z,98036.70
2018-07-06T08:45:25.806Z,98035.47
2018-07-06T08:47:54.594Z,98033.95
2018-07-06T08:50:23.893Z,98034.70
2018-07-06T08:52:53.685Z,98043.16
2018-07-06T08:55:23.290Z,98048.88
2018-07-06T08:57:54.689Z,98050.10
2018-07-06T09:00:23.699Z,98054.79
2018-07-06T09:02:52.691Z,98056.73
2018-07-06T09:05:21.817Z,98054.42
2018-07-06T09:07:51.059Z,98049.81
2018-07-06T09:10:20.350Z,98065.69
2018-07-06T09:12:49.624Z,98057.89
2018-07-06T09:15:18.630Z,98061.80
2018-07-06T09:17:47.703Z,98062.84
2018-07-06T09:20:18.215Z,98065.18
2018-07-06T09:22:47.432Z,98067.66
2018-07-06T09:25:17.020Z,98073.52
2018-07-06T09:27:45.933Z,98071.63
2018-07-06T09:30:14.745Z,98074.22
2018-07-06T09:32:43.643Z,98081.06
2018-07-06T09:35:12.527Z,98079.52
2018-07-06T09:37:41.667Z,98081.37
2018-07-06T09:40:10.607Z,98082.00
2018-07-06T09:42:39.507Z,98082.80
2018-07-06T09:45:08.300Z,98086.56
2018-07-06T09:47:37.207Z,98090.64
2018-07-06T09:50:06.174Z,98089.34
2018-07-06T09:52:35.304Z,98090.07
2018-07-06T09:55:04.195Z,98089.44
2018-07-06T09:57:33.424Z,98094.22
2018-07-06T10:00:02.332Z,98091.28
2018-07-06T10:02:31.507Z,98098.52
2018-07-06T10:05:00.431Z,98089.90
2018-07-06T10:07:29.732Z,98094.77
2018-07-06T10:09:58.926Z,98095.77
2018-07-06T10:12:27.825Z,98096.14
2018-07-06T10:14:56.732Z,98095.09
2018-07-06T10:17:25.809Z,98094.56
2018-07-06T10:19:55.082Z,98105.06
2018-07-06T10:22:24.045Z,98099.80
2018-07-06T10:24:52.865Z,98106.22
2018-07-06T10:27:23.638Z,98115.31
2018-07-06T10:29:59.048Z,98114.81
2018-07-06T10:32:29.006Z,98110.56
2018-07-06T10:34:58.415Z,98111.06
2018-07-06T10:37:27.926Z,98104.88
2018-07-06T10:39:56.860Z,98100.83
2018-07-06T10:42:25.706Z,98098.34
2018-07-06T10:44:54.621Z,98105.23
2018-07-06T10:47:23.694Z,98107.98
2018-07-06T10:49:52.399Z,98107.10
2018-07-06T10:52:21.483Z,98098.91
2018-07-06T10:54:50.346Z,98102.59
2018-07-06T10:57:19.236Z,98099.74
2018-07-06T10:59:48.199Z,98095.11
2018-07-06T11:02:17.617Z,98093.80
2018-07-06T11:04:46.654Z,98088.71
2018-07-06T11:07:15.713Z,98092.43
2018-07-06T11:09:44.567Z,98086.63
2018-07-06T11:12:13.715Z,98083.56
2018-07-06T11:14:42.626Z,98089.48
2018-07-06T11:17:11.546Z,98085.30
2018-07-06T11:19:40.442Z,98087.11
2018-07-06T11:22:09.304Z,98076.89
2018-07-06T11:24:38.081Z,98084.88
2018-07-06T11:27:07.090Z,98082.19
2018-07-06T11:29:36.121Z,98087.52
2018-07-06T11:32:05.105Z,98077.47
2018-07-06T11:34:33.967Z,98075.82
2018-07-06T11:37:02.926Z,98082.92
2018-07-06T11:39:32.202Z,98076.22
2018-07-06T11:42:00.933Z,98081.75
2018-07-06T11:44:30.025Z,98072.16
2018-07-06T11:46:58.894Z,98079.84
2018-07-06T11:49:28.180Z,98079.08
2018-07-06T11:51:57.565Z,98072.16
2018-07-06T11:54:26.727Z,98069.88
2018-07-06T11:56:55.532Z,98072.83
2018-07-06T11:59:24.806Z,98067.52
2018-07-06T12:01:54.424Z,98072.74
2018-07-06T12:04:23.615Z,98056.09
2018-07-06T12:06:52.693Z,98063.82
2018-07-06T12:09:21.637Z,98060.97
2018-07-06T12:11:51.093Z,98060.62
2018-07-06T12:14:20.465Z,98062.98
2018-07-06T12:16:49.458Z,98068.09
2018-07-06T12:19:18.470Z,98050.02
2018-07-06T12:21:47.463Z,98045.19
2018-07-06T12:24:16.725Z,98050.52
2018-07-06T12:26:45.629Z,98050.44
2018-07-06T12:29:14.771Z,98053.81
2018-07-06T12:31:43.562Z,98052.74
2018-07-06T12:34:12.695Z,98054.16
2018-07-06T12:36:41.650Z,98048.26
2018-07-06T12:39:10.804Z,98042.11
2018-07-06T12:41:39.821Z,98043.98
2018-07-06T12:44:08.879Z,98042.23
2018-07-06T12:46:37.743Z,98037.27
2018-07-06T12:49:06.865Z,98038.16
2018-07-06T12:51:35.722Z,98036.72
2018-07-06T12:54:04.596Z,98034.95
2018-07-06T12:56:33.577Z,98028.34
2018-07-06T12:59:02.543Z,98026.70
2018-07-06T13:01:31.627Z,98026.27
2018-07-06T13:04:00.545Z,98026.06
2018-07-06T13:06:29.434Z,98028.95
2018-07-06T13:08:58.423Z,98026.61
2018-07-06T13:11:27.322Z,98021.94
2018-07-06T13:13:56.163Z,98035.86
2018-07-06T13:16:25.042Z,98019.32
2018-07-06T13:18:54.080Z,98015.09
2018-07-06T13:21:22.992Z,98018.56
2018-07-06T13:23:51.872Z,98037.86
2018-07-06T13:26:20.798Z,98022.01
2018-07-06T13:28:49.552Z,98021.20
2018-07-06T13:31:18.409Z,98019.27
2018-07-06T13:33:47.593Z,98017.78
2018-07-06T13:36:16.600Z,98012.49
2018-07-06T13:38:45.818Z,98015.08
2018-07-06T13:41:14.788Z,98021.27
2018-07-06T13:43:43.784Z,98024.52
2018-07-06T13:46:12.705Z,98013.84
2018-07-06T13:48:41.562Z,98006.45
2018-07-06T13:51:10.532Z,97999.66
2018-07-06T13:53:39.302Z,98006.30
2018-07-06T13:56:08.301Z,98015.72
2018-07-06T13:58:37.151Z,98018.16
2018-07-06T14:01:05.910Z,98010.36
2018-07-06T14:03:35.024Z,98003.64
2018-07-06T14:06:03.875Z,98010.19
2018-07-06T14:08:33.212Z,98008.14
2018-07-06T14:11:02.180Z,98007.71
2018-07-06T14:13:31.283Z,98014.49
2018-07-06T14:16:00.129Z,98012.78
2018-07-06T14:18:28.812Z,98005.48
2018-07-06T14:20:57.599Z,98008.02
2018-07-06T14:23:26.644Z,97982.94
2018-07-06T14:25:55.485Z,98011.52
2018-07-06T14:28:24.305Z,98011.89
2018-07-06T14:30:53.181Z,98013.11
2018-07-06T14:33:22.910Z,98003.70
2018-07-06T14:35:51.911Z,98007.69
2018-07-06T14:38:20.798Z,98003.48
2018-07-06T14:40:49.847Z,97987.05
2018-07-06T14:43:18.654Z,98003.78
2018-07-06T14:45:47.685Z,97998.01
2018-07-06T14:48:16.800Z,97997.19
2018-07-06T14:50:46.006Z,97990.79
2018-07-06T14:53:14.967Z,97992.06
2018-07-06T14:55:43.776Z,97989.67
2018-07-06T14:58:12.482Z,97995.17
2018-07-06T15:00:41.272Z,97994.71
2018-07-06T15:03:11.049Z,97994.25
2018-07-06T15:05:39.817Z,98004.55
2018-07-06T15:08:08.839Z,98001.81
2018-07-06T15:10:37.874Z,97999.23
2018-07-06T15:13:07.264Z,98003.70
2018-07-06T15:15:36.379Z,98001.52
2018-07-06T15:18:05.351Z,98001.27
2018-07-06T15:20:34.660Z,98001.56
2018-07-06T15:23:03.590Z,98007.14
2018-07-06T15:25:32.721Z,98008.97
2018-07-06T15:28:01.730Z,98001.56
2018-07-06T15:30:30.826Z,98000.05
2018-07-06T15:32:59.611Z,97997.88
2018-07-06T15:35:28.699Z,98000.53
2018-07-06T15:37:57.762Z,97990.41
2018-07-06T15:40:26.612Z,97994.88
2018-07-06T15:42:55.896Z,97998.39
2018-07-06T15:45:25.029Z,97995.69
2018-07-06T15:47:54.325Z,97993.78
2018-07-06T15:50:23.173Z,97998.17
2018-07-06T15:52:52.074Z,97998.91
2018-07-06T15:55:20.985Z,97999.17
2018-07-06T15:57:49.827Z,98003.17
2018-07-06T16:00:18.629Z,98003.33
2018-07-06T16:02:47.586Z,98011.41
2018-07-06T16:05:16.858Z,98008.75
2018-07-06T16:07:46.046Z,98014.34
2018-07-06T16:10:15.423Z,98014.33
2018-07-06T16:12:44.821Z,98008.53
2018-07-06T16:15:13.854Z,98003.25
2018-07-06T16:17:42.807Z,98004.40
2018-07-06T16:20:11.830Z,98004.87
2018-07-06T16:22:40.834Z,98010.28
2018-07-06T16:25:09.722Z,98007.52
2018-07-06T16:27:38.582Z,98004.56
2018-07-06T16:30:07.825Z,98002.50
2018-07-06T16:32:36.790Z,98001.23
2018-07-06T16:35:05.865Z,98002.61
2018-07-06T16:37:34.843Z,98013.77
2018-07-06T16:40:03.735Z,98018.46
2018-07-06T16:42:32.785Z,98014.28
2018-07-06T16:45:01.816Z,98011.36
2018-07-06T16:47:30.671Z,98014.77
2018-07-06T16:49:59.486Z,98016.31
2018-07-06T16:52:28.443Z,98013.31
2018-07-06T16:54:57.421Z,98025.38
2018-07-06T16:57:26.473Z,98026.63
2018-07-06T16:59:55.589Z,98017.02
2018-07-06T17:02:24.603Z,98042.70
2018-07-06T17:04:53.950Z,98022.88
2018-07-06T17:07:23.190Z,98024.47
2018-07-06T17:09:52.627Z,98023.97
2018-07-06T17:12:21.755Z,98028.23
2018-07-06T17:14:50.925Z,98038.05
2018-07-06T17:17:19.937Z,98036.45
2018-07-06T17:19:49.516Z,98041.89
2018-07-06T17:22:18.442Z,98035.31
2018-07-06T17:24:47.187Z,98041.28
2018-07-06T17:27:16.194Z,98040.22
2018-07-06T17:29:45.383Z,98042.97
2018-07-06T17:32:14.591Z,98039.48
2018-07-06T17:34:43.675Z,98039.02
2018-07-06T17:37:12.592Z,98040.56
2018-07-06T17:39:41.627Z,98041.78
2018-07-06T17:42:10.967Z,98039.88
2018-07-06T17:44:40.035Z,98042.11
2018-07-06T17:47:09.261Z,98043.94
2018-07-06T17:49:38.429Z,98047.70
2018-07-06T17:52:07.460Z,98042.98
2018-07-06T17:54:36.399Z,98039.47
2018-07-06T17:57:05.937Z,98046.58
2018-07-06T17:59:34.841Z,98044.30
2018-07-06T18:02:09.471Z,98047.30
2018-07-06T18:04:38.322Z,98049.56
2018-07-06T18:07:07.275Z,98049.12
2018-07-06T18:09:36.139Z,98051.02
2018-07-06T18:12:05.036Z,98046.93
2018-07-06T18:14:34.082Z,98063.06
2018-07-06T18:17:03.721Z,98058.93
2018-07-06T18:19:32.852Z,98068.45
2018-07-06T18:22:01.729Z,98064.53
2018-07-06T18:24:30.731Z,98073.16
2018-07-06T18:26:59.743Z,98070.02
2018-07-06T18:29:28.694Z,98081.92
2018-07-06T18:31:57.617Z,98079.86
2018-07-06T18:34:26.568Z,98077.16
2018-07-06T18:36:55.888Z,98079.47
2018-07-06T18:39:24.958Z,98089.36
2018-07-06T18:41:53.788Z,98096.40
2018-07-06T18:44:23.061Z,98098.20
2018-07-06T18:46:51.892Z,98103.29
2018-07-06T18:49:21.054Z,98108.14
2018-07-06T18:51:49.930Z,98106.88
2018-07-06T18:54:18.881Z,98115.33
2018-07-06T18:56:47.666Z,98118.45
2018-07-06T18:59:17.046Z,98116.80
2018-07-06T19:01:45.979Z,98114.60
2018-07-06T19:04:14.861Z,98116.88
2018-07-06T19:06:44.938Z,98118.22
2018-07-06T19:09:13.829Z,98123.68
2018-07-06T19:11:42.642Z,98129.34
2018-07-06T19:14:11.551Z,98139.13
2018-07-06T19:16:41.134Z,98140.25
2018-07-06T19:19:09.951Z,98143.74
2018-07-06T19:21:38.895Z,98150.55
2018-07-06T19:24:07.983Z,98166.09
2018-07-06T19:26:36.807Z,98169.02
2018-07-06T19:29:06.185Z,98165.53
2018-07-06T19:31:35.671Z,98175.61
2018-07-06T19:34:04.626Z,98180.30
2018-07-06T19:36:33.855Z,98187.25
2018-07-06T19:39:02.740Z,98186.98
2018-07-06T19:41:31.802Z,98193.37
2018-07-06T19:44:07.465Z,98201.16
2018-07-06T19:46:36.451Z,98206.56
2018-07-06T19:49:06.255Z,98209.16
2018-07-06T19:51:35.457Z,98217.41
2018-07-06T19:54:04.474Z,98223.36
2018-07-06T19:56:33.328Z,98232.47
2018-07-06T19:59:02.479Z,98232.47
2018-07-06T20:01:31.334Z,98245.25
2018-07-06T20:04:00.641Z,98248.75
2018-07-06T20:06:29.529Z,98249.23
2018-07-06T20:08:58.474Z,98251.66
2018-07-06T20:11:27.418Z,98259.20
2018-07-06T20:13:56.404Z,98259.03
2018-07-06T20:16:25.339Z,98256.08
2018-07-06T20:18:54.184Z,98266.78
2018-07-06T20:21:22.931Z,98270.14
2018-07-06T20:23:52.379Z,98266.98
2018-07-06T20:26:21.252Z,98266.61
2018-07-06T20:28:49.989Z,98272.02
2018-07-06T20:31:18.821Z,98271.97
2018-07-06T20:33:47.537Z,98276.59
2018-07-06T20:36:16.422Z,98280.38
2018-07-06T20:38:45.585Z,98283.36
2018-07-06T20:41:15.840Z,98283.56
2018-07-06T20:43:44.700Z,98288.84
2018-07-06T20:46:13.632Z,98289.99
2018-07-06T20:48:42.712Z,98298.23
2018-07-06T20:51:11.780Z,98296.72
2018-07-06T20:53:41.055Z,98300.53
2018-07-06T20:56:09.992Z,98302.27
2018-07-06T20:58:39.209Z,98302.64
2018-07-06T21:01:09.011Z,98307.61
2018-07-06T21:03:37.913Z,98303.92
2018-07-06T21:06:06.672Z,98306.76
2018-07-06T21:08:35.641Z,98310.88
2018-07-06T21:11:04.780Z,98305.02
2018-07-06T21:13:34.581Z,98313.69
2018-07-06T21:16:03.448Z,98313.95
2018-07-06T21:18:32.659Z,98314.11
2018-07-06T21:21:02.429Z,98313.80
2018-07-06T21:23:31.289Z,98320.97
2018-07-06T21:26:00.427Z,98323.50
2018-07-06T21:28:29.195Z,98321.88
2018-07-06T21:30:58.205Z,98321.96
2018-07-06T21:33:27.025Z,98328.98
2018-07-06T21:35:56.300Z,98325.66
2018-07-06T21:38:25.169Z,98327.14
2018-07-06T21:40:54.269Z,98321.82
2018-07-06T21:43:23.082Z,98320.86
2018-07-06T21:45:52.045Z,98329.09
2018-07-06T21:48:21.313Z,98327.07
2018-07-06T21:50:50.732Z,98332.08
2018-07-06T21:53:20.251Z,98334.03
2018-07-06T21:55:49.631Z,98333.69
2018-07-06T21:58:18.947Z,98335.99
2018-07-06T22:00:47.926Z,98341.27
2018-07-06T22:03:17.066Z,98342.82
2018-07-06T22:05:45.923Z,98341.75
2018-07-06T22:08:15.036Z,98344.02
2018-07-06T22:10:43.986Z,98341.67
2018-07-06T22:13:12.930Z,98342.33
2018-07-06T22:15:45.069Z,98336.77
2018-07-06T22:18:18.768Z,98344.85
2018-07-06T22:20:48.711Z,98343.80
2018-07-06T22:23:17.981Z,98347.77
2018-07-06T22:25:46.944Z,98343.66
2018-07-06T22:28:15.704Z,98349.97
2018-07-06T22:30:44.536Z,98347.22
2018-07-06T22:33:13.763Z,98347.05
2018-07-06T22:35:42.849Z,98346.72
2018-07-06T22:38:12.195Z,98348.82
2018-07-06T22:40:41.278Z,98350.32
2018-07-06T22:43:10.174Z,98347.61
2018-07-06T22:45:39.189Z,98347.25
2018-07-06T22:48:08.134Z,98346.19
2018-07-06T22:50:37.185Z,98353.64
2018-07-06T22:53:06.827Z,98347.37
2018-07-06T22:55:35.798Z,98349.83
2018-07-06T22:58:04.740Z,98352.84
2018-07-06T23:00:33.659Z,98355.33
2018-07-06T23:03:04.670Z,98349.64
2018-07-06T23:05:33.858Z,98345.53
2018-07-06T23:08:03.268Z,98351.33
2018-07-06T23:10:32.329Z,98351.14
2018-07-06T23:13:01.563Z,98345.33
2018-07-06T23:15:30.595Z,98345.59
2018-07-06T23:17:59.834Z,98344.96
2018-07-06T23:20:29.388Z,98350.25
2018-07-06T23:23:04.886Z,98356.34
2018-07-06T23:25:37.076Z,98348.81
2018-07-06T23:28:06.482Z,98360.24
2018-07-06T23:30:35.315Z,98360.33
2018-07-06T23:33:05.766Z,98360.38
2018-07-06T23:35:34.811Z,98360.39
2018-07-06T23:38:03.598Z,98361.89
2018-07-06T23:40:32.486Z,98364.47
2018-07-06T23:43:01.569Z,98360.97
2018-07-06T23:45:30.642Z,98361.29
2018-07-06T23:47:59.826Z,98365.39
2018-07-06T23:50:28.785Z,98362.87
2018-07-06T23:52:57.734Z,98365.96
2018-07-06T23:55:26.893Z,98361.63
2018-07-06T23:57:55.840Z,98363.35
